createdAt,value
2022-08-10T00:01:02.814Z,1.33
2022-08-10T00:03:29.448Z,1.40
2022-08-10T00:05:56.669Z,1.40
2022-08-10T00:08:25.221Z,1.30
2022-08-10T00:10:53.270Z,1.27
2022-08-10T00:13:22.855Z,1.30
2022-08-10T00:15:53.874Z,1.20
2022-08-10T00:18:35.928Z,1.08
2022-08-10T00:21:06.657Z,1.17
2022-08-10T00:23:33.618Z,1.40
2022-08-10T00:26:00.207Z,1.33
2022-08-10T00:28:26.831Z,1.20
2022-08-10T00:30:53.636Z,1.27
2022-08-10T00:33:21.039Z,1.42
2022-08-10T00:35:47.805Z,1.27
2022-08-10T00:38:14.491Z,1.60
2022-08-10T00:40:41.080Z,1.35
2022-08-10T00:43:08.007Z,1.40
2022-08-10T00:45:35.282Z,1.42
2022-08-10T00:48:02.095Z,1.30
2022-08-10T00:50:28.967Z,1.23
2022-08-10T00:52:55.653Z,1.10
2022-08-10T00:55:22.254Z,1.23
2022-08-10T00:57:55.262Z,1.17
2022-08-10T01:00:22.540Z,1.83
2022-08-10T01:02:54.560Z,1.17
2022-08-10T01:05:21.844Z,1.10
2022-08-10T01:07:58.080Z,1.20
2022-08-10T01:10:27.683Z,1.35
2022-08-10T01:13:17.332Z,1.40
2022-08-10T01:16:03.070Z,1.48
2022-08-10T01:18:35.873Z,1.77
2022-08-10T01:21:23.506Z,1.60
2022-08-10T01:23:53.040Z,1.23
2022-08-10T01:26:30.440Z,1.50
2022-08-10T01:29:17.773Z,1.42
2022-08-10T01:31:48.216Z,1.58
2022-08-10T01:34:18.155Z,1.20
2022-08-10T01:36:59.736Z,1.40
2022-08-10T01:39:28.521Z,1.95
2022-08-10T01:41:56.742Z,1.40
2022-08-10T01:44:25.876Z,1.60
2022-08-10T01:46:57.201Z,1.35
2022-08-10T01:49:24.638Z,1.27
2022-08-10T01:51:53.020Z,1.60
2022-08-10T01:54:20.527Z,1.50
2022-08-10T01:56:49.068Z,1.55
2022-08-10T01:59:24.304Z,1.73
2022-08-10T02:01:53.634Z,1.30
2022-08-10T02:04:20.891Z,1.60
2022-08-10T02:06:48.996Z,1.20
2022-08-10T02:09:18.537Z,1.60
2022-08-10T02:12:05.673Z,1.45
2022-08-10T02:14:34.270Z,1.20
2022-08-10T02:17:02.084Z,1.40
2022-08-10T02:19:29.852Z,1.48
2022-08-10T02:22:37.076Z,1.42
2022-08-10T02:24:45.480Z,1.48
2022-08-10T02:27:12.545Z,2.15
2022-08-10T02:29:42.379Z,1.30
2022-08-10T02:32:10.078Z,1.23
2022-08-10T02:34:37.803Z,1.15
2022-08-10T02:37:10.905Z,1.65
2022-08-10T02:39:39.240Z,2.85
2022-08-10T02:45:01.816Z,1.65
2022-08-10T02:45:26.306Z,1.80
2022-08-10T02:48:01.575Z,1.17
2022-08-10T02:50:35.849Z,1.45
2022-08-10T02:53:51.662Z,1.60
2022-08-10T02:56:10.991Z,1.40
2022-08-10T02:58:50.445Z,1.33
2022-08-10T03:01:19.137Z,1.40
2022-08-10T03:03:48.687Z,1.20
2022-08-10T03:06:17.578Z,1.17
2022-08-10T03:08:44.686Z,1.50
2022-08-10T03:11:18.047Z,1.27
2022-08-10T03:14:05.236Z,1.30
2022-08-10T03:16:33.456Z,1.23
2022-08-10T03:19:01.804Z,1.17
2022-08-10T03:21:29.248Z,1.45
2022-08-10T03:23:58.204Z,1.45
2022-08-10T03:26:25.833Z,1.60
2022-08-10T03:28:53.016Z,1.25
2022-08-10T03:31:19.764Z,1.88
2022-08-10T03:33:47.055Z,1.05
2022-08-10T03:36:39.982Z,1.50
2022-08-10T03:39:00.287Z,1.17
2022-08-10T03:41:35.328Z,1.13
2022-08-10T03:44:04.348Z,1.77
2022-08-10T03:46:31.827Z,1.58
2022-08-10T03:49:00.902Z,1.40
2022-08-10T03:51:27.666Z,1.15
2022-08-10T03:54:03.454Z,1.20
2022-08-10T03:56:37.288Z,1.90
2022-08-10T03:59:04.985Z,1.10
2022-08-10T04:02:47.060Z,1.70
2022-08-10T04:04:24.074Z,1.83
2022-08-10T04:06:54.771Z,1.83
2022-08-10T04:09:23.151Z,1.40
2022-08-10T04:11:49.833Z,1.23
2022-08-10T04:14:38.761Z,1.52
2022-08-10T04:17:03.039Z,1.52
2022-08-10T04:19:34.849Z,1.50
2022-08-10T04:22:05.035Z,1.40
2022-08-10T04:24:34.337Z,1.40
2022-08-10T04:27:01.769Z,1.40
2022-08-10T04:29:28.784Z,1.45
2022-08-10T04:31:55.390Z,1.40
2022-08-10T04:34:26.108Z,1.80
2022-08-10T04:36:53.494Z,1.70
2022-08-10T04:39:20.268Z,1.48
2022-08-10T04:41:47.484Z,1.60
2022-08-10T04:44:14.394Z,1.50
2022-08-10T04:46:41.084Z,1.45
2022-08-10T04:49:55.549Z,1.58
2022-08-10T04:52:08.866Z,1.58
2022-08-10T04:54:36.843Z,1.45
2022-08-10T04:57:03.568Z,2.13
2022-08-10T04:59:30.140Z,1.50
2022-08-10T05:02:27.103Z,1.80
2022-08-10T05:04:43.535Z,1.52
2022-08-10T05:07:11.180Z,1.13
2022-08-10T05:10:02.741Z,1.60
2022-08-10T05:12:30.208Z,1.55
2022-08-10T05:14:57.231Z,1.65
2022-08-10T05:17:26.511Z,1.42
2022-08-10T05:20:02.848Z,1.70
2022-08-10T05:22:32.231Z,1.65
2022-08-10T05:24:58.845Z,1.40
2022-08-10T05:27:25.441Z,1.85
2022-08-10T05:30:02.627Z,1.80
2022-08-10T05:32:31.119Z,1.70
2022-08-10T05:34:57.902Z,2.00
2022-08-10T05:38:12.871Z,1.73
2022-08-10T05:40:11.713Z,1.60
2022-08-10T05:42:39.383Z,1.65
2022-08-10T05:45:06.410Z,1.40
2022-08-10T05:48:55.411Z,1.63
2022-08-10T05:50:21.708Z,1.95
2022-08-10T05:52:48.406Z,2.03
2022-08-10T05:55:15.306Z,2.20
2022-08-10T05:57:44.856Z,2.30
2022-08-10T06:00:37.466Z,2.55
2022-08-10T06:03:06.123Z,2.58
2022-08-10T06:05:34.636Z,2.60
2022-08-10T06:08:05.842Z,2.70
2022-08-10T06:10:35.572Z,2.28
2022-08-10T06:13:30.853Z,2.97
2022-08-10T06:16:04.408Z,2.40
2022-08-10T06:18:31.115Z,2.78
2022-08-10T06:20:58.005Z,2.30
2022-08-10T06:23:26.266Z,2.45
2022-08-10T06:26:10.261Z,3.13
2022-08-10T06:28:40.693Z,3.03
2022-08-10T06:31:07.903Z,3.15
2022-08-10T06:33:35.705Z,2.88
2022-08-10T06:36:03.154Z,2.95
2022-08-10T06:38:34.052Z,3.15
2022-08-10T06:41:02.669Z,2.70
2022-08-10T06:43:30.843Z,2.55
2022-08-10T06:46:07.219Z,2.90
2022-08-10T06:48:41.271Z,2.78
2022-08-10T06:51:15.675Z,2.75
2022-08-10T06:53:52.021Z,2.60
2022-08-10T06:56:36.504Z,2.95
2022-08-10T06:59:06.322Z,3.15
2022-08-10T07:01:34.297Z,2.80
2022-08-10T07:04:32.301Z,2.80
2022-08-10T07:07:02.000Z,3.22
2022-08-10T07:09:28.856Z,2.45
2022-08-10T07:11:56.292Z,2.80
2022-08-10T07:14:36.806Z,2.63
2022-08-10T07:17:04.822Z,2.70
2022-08-10T07:19:32.752Z,2.80
2022-08-10T07:21:59.629Z,2.83
2022-08-10T07:24:27.217Z,2.47
2022-08-10T07:26:55.522Z,2.63
2022-08-10T07:29:53.752Z,2.60
2022-08-10T07:32:15.375Z,3.00
2022-08-10T07:34:42.509Z,2.53
2022-08-10T07:37:10.306Z,2.45
2022-08-10T07:40:03.515Z,2.88
2022-08-10T07:42:30.286Z,2.33
2022-08-10T07:44:58.115Z,2.40
2022-08-10T07:47:52.956Z,2.60
2022-08-10T07:50:19.099Z,2.70
2022-08-10T07:52:46.230Z,2.55
2022-08-10T07:55:14.546Z,2.95
2022-08-10T07:57:42.754Z,3.10
2022-08-10T08:00:11.267Z,3.20
2022-08-10T08:02:55.847Z,2.70
2022-08-10T08:05:29.912Z,3.35
2022-08-10T08:08:13.919Z,3.00
2022-08-10T08:10:41.142Z,2.72
2022-08-10T08:13:08.480Z,2.83
2022-08-10T08:16:17.256Z,3.40
2022-08-10T08:18:25.485Z,3.08
2022-08-10T08:20:52.951Z,3.17
2022-08-10T08:24:08.639Z,2.92
2022-08-10T08:26:08.460Z,3.28
2022-08-10T08:28:35.584Z,3.10
2022-08-10T08:31:03.060Z,3.55
2022-08-10T08:33:41.986Z,3.30
2022-08-10T08:36:10.837Z,4.10
2022-08-10T08:38:37.882Z,3.55
2022-08-10T08:41:18.309Z,3.65
2022-08-10T08:43:44.874Z,3.75
2022-08-10T08:46:20.779Z,4.13
2022-08-10T08:49:05.932Z,4.38
2022-08-10T08:52:09.267Z,4.88
2022-08-10T08:54:47.173Z,4.13
2022-08-10T08:57:49.058Z,3.45
2022-08-10T09:00:26.347Z,4.40
2022-08-10T09:03:10.404Z,3.78
2022-08-10T09:05:58.772Z,3.30
2022-08-10T09:09:02.304Z,3.20
2022-08-10T09:11:36.547Z,4.63
2022-08-10T09:14:06.087Z,4.72
2022-08-10T09:16:52.781Z,3.88
2022-08-10T09:19:35.214Z,4.45
2022-08-10T09:22:19.466Z,4.53
2022-08-10T09:24:46.255Z,3.78
2022-08-10T09:27:18.930Z,3.25
2022-08-10T09:29:52.454Z,3.65
2022-08-10T09:36:15.281Z,3.63
2022-08-10T09:36:21.605Z,3.57
2022-08-10T09:38:21.127Z,4.05
2022-08-10T09:41:13.175Z,3.88
2022-08-10T09:43:56.855Z,3.40
2022-08-10T09:46:42.578Z,3.47
2022-08-10T09:49:18.394Z,4.10
2022-08-10T09:51:58.227Z,3.47
2022-08-10T09:54:24.903Z,3.63
2022-08-10T09:57:44.906Z,3.88
2022-08-10T10:00:02.616Z,3.50
2022-08-10T10:02:36.207Z,3.15
2022-08-10T10:05:38.452Z,3.58
2022-08-10T10:08:42.969Z,3.55
2022-08-10T10:14:01.978Z,3.42
2022-08-10T10:16:49.876Z,3.35
2022-08-10T10:19:47.239Z,3.45
2022-08-10T10:22:26.116Z,2.97
2022-08-10T10:24:57.098Z,3.03
2022-08-10T10:27:30.409Z,2.90
2022-08-10T10:30:03.605Z,3.17
2022-08-10T10:32:37.245Z,3.27
2022-08-10T10:38:02.616Z,3.33
2022-08-10T10:40:21.740Z,3.58
2022-08-10T10:43:07.832Z,3.88
2022-08-10T10:45:50.131Z,3.38
2022-08-10T10:48:33.838Z,3.28
2022-08-10T10:51:14.089Z,3.42
2022-08-10T10:53:57.545Z,3.38
2022-08-10T10:56:24.651Z,3.72
2022-08-10T10:59:33.471Z,3.30
2022-08-10T11:01:53.263Z,3.42
2022-08-10T11:04:22.535Z,3.08
2022-08-10T11:06:50.878Z,3.92
2022-08-10T11:10:05.450Z,3.17
2022-08-10T11:12:29.446Z,3.03
2022-08-10T11:15:02.874Z,3.13
2022-08-10T11:17:34.538Z,3.35
2022-08-10T11:20:20.165Z,3.63
2022-08-10T11:23:05.374Z,4.38
2022-08-10T11:25:33.062Z,2.80
2022-08-10T11:28:04.226Z,3.42
2022-08-10T11:30:43.369Z,3.50
2022-08-10T11:33:32.501Z,3.50
2022-08-10T11:36:02.535Z,3.80
2022-08-10T11:39:13.583Z,3.42
2022-08-10T11:42:11.987Z,3.10
2022-08-10T11:44:49.199Z,3.47
2022-08-10T11:47:20.809Z,3.42
2022-08-10T11:49:53.579Z,3.90
2022-08-10T11:52:25.620Z,3.13
2022-08-10T11:54:54.452Z,2.95
2022-08-10T11:57:23.839Z,3.55
2022-08-10T11:59:59.320Z,3.10
2022-08-10T12:02:32.091Z,3.10
2022-08-10T12:05:21.758Z,3.53
2022-08-10T12:10:05.837Z,3.58
2022-08-10T12:10:40.946Z,2.75
2022-08-10T12:13:35.957Z,3.38
2022-08-10T12:16:07.694Z,2.80
2022-08-10T12:18:56.823Z,3.50
2022-08-10T12:21:28.037Z,2.90
2022-08-10T12:24:07.497Z,3.45
2022-08-10T12:26:37.181Z,3.55
2022-08-10T12:29:09.027Z,3.65
2022-08-10T12:31:41.037Z,3.30
2022-08-10T12:34:18.770Z,2.95
2022-08-10T12:36:48.150Z,3.25
2022-08-10T12:39:17.164Z,3.13
2022-08-10T12:41:56.813Z,3.20
2022-08-10T12:44:41.307Z,3.20
2022-08-10T12:47:28.685Z,2.92
2022-08-10T12:50:13.642Z,2.83
2022-08-10T12:52:56.371Z,3.00
2022-08-10T12:55:24.480Z,2.85
2022-08-10T12:57:55.913Z,2.83
2022-08-10T13:00:28.019Z,2.75
2022-08-10T13:02:54.746Z,3.20
2022-08-10T13:05:23.273Z,2.50
2022-08-10T13:08:26.909Z,2.95
2022-08-10T13:11:00.731Z,3.15
2022-08-10T13:13:30.759Z,2.78
2022-08-10T13:15:58.386Z,3.17
2022-08-10T13:18:29.872Z,3.58
2022-08-10T13:21:00.527Z,3.03
2022-08-10T13:23:28.954Z,3.13
2022-08-10T13:25:57.338Z,3.10
2022-08-10T13:28:50.405Z,3.17
2022-08-10T13:31:18.803Z,3.15
2022-08-10T13:34:41.045Z,2.67
2022-08-10T13:36:38.680Z,2.80
2022-08-10T13:39:06.436Z,3.28
2022-08-10T13:41:37.751Z,3.35
2022-08-10T13:44:07.471Z,3.05
2022-08-10T13:46:37.914Z,3.08
2022-08-10T13:49:07.925Z,2.88
2022-08-10T13:51:56.686Z,2.75
2022-08-10T13:54:24.899Z,2.75
2022-08-10T13:56:51.938Z,2.80
2022-08-10T13:59:19.414Z,2.97
2022-08-10T14:01:48.244Z,2.78
2022-08-10T14:04:15.343Z,3.20
2022-08-10T14:06:42.224Z,2.70
2022-08-10T14:09:10.825Z,2.88
2022-08-10T14:11:38.512Z,2.85
2022-08-10T14:14:07.175Z,2.90
2022-08-10T14:16:34.262Z,2.95
2022-08-10T14:19:04.801Z,3.22
2022-08-10T14:21:37.313Z,3.83
2022-08-10T14:24:04.072Z,3.50
2022-08-10T14:26:31.204Z,4.20
2022-08-10T14:29:06.178Z,5.78
2022-08-10T14:31:34.139Z,5.40
2022-08-10T14:34:01.566Z,5.30
2022-08-10T14:36:36.766Z,4.10
2022-08-10T14:39:04.204Z,4.22
2022-08-10T14:42:03.104Z,5.82
2022-08-10T14:44:19.128Z,5.50
2022-08-10T14:46:51.385Z,4.90
2022-08-10T14:49:26.471Z,4.68
2022-08-10T14:51:59.343Z,4.53
2022-08-10T14:54:29.838Z,4.45
2022-08-10T14:57:10.886Z,4.72
2022-08-10T15:00:22.398Z,4.43
2022-08-10T15:02:39.158Z,5.63
2022-08-10T15:05:15.923Z,4.47
2022-08-10T15:07:45.642Z,5.03
2022-08-10T15:10:18.574Z,5.10
2022-08-10T15:12:46.960Z,3.80
2022-08-10T15:15:16.377Z,4.15
2022-08-10T15:17:50.657Z,4.30
2022-08-10T15:20:21.822Z,3.67
2022-08-10T15:22:50.420Z,4.50
2022-08-10T15:25:25.520Z,4.95
2022-08-10T15:27:55.914Z,4.50
2022-08-10T15:30:32.439Z,4.63
2022-08-10T15:34:02.032Z,4.03
2022-08-10T15:36:33.669Z,4.30
2022-08-10T15:39:01.269Z,5.13
2022-08-10T15:41:57.850Z,4.50
2022-08-10T15:44:21.967Z,4.15
2022-08-10T15:46:59.978Z,4.05
2022-08-10T15:49:38.797Z,4.75
2022-08-10T15:52:39.235Z,4.32
2022-08-10T15:55:44.247Z,3.80
2022-08-10T15:58:30.141Z,4.03
2022-08-10T16:01:09.725Z,4.28
2022-08-10T16:04:10.835Z,3.80
2022-08-10T16:06:53.845Z,4.18
2022-08-10T16:10:22.361Z,3.33
2022-08-10T16:12:32.421Z,4.00
2022-08-10T16:15:04.450Z,3.88
2022-08-10T16:17:54.485Z,3.75
2022-08-10T16:20:31.218Z,4.07
2022-08-10T16:22:59.718Z,3.60
2022-08-10T16:25:51.634Z,3.38
2022-08-10T16:28:22.991Z,3.47
2022-08-10T16:30:53.154Z,4.03
2022-08-10T16:33:54.223Z,3.65
2022-08-10T16:36:15.552Z,4.22
2022-08-10T16:38:45.535Z,3.95
2022-08-10T16:42:00.757Z,3.63
2022-08-10T16:44:00.984Z,4.10
2022-08-10T16:46:28.790Z,3.28
2022-08-10T16:48:57.249Z,3.30
2022-08-10T16:51:24.211Z,3.30
2022-08-10T16:53:51.842Z,4.13
2022-08-10T16:56:24.353Z,4.22
2022-08-10T16:58:53.945Z,3.55
2022-08-10T17:01:22.945Z,3.38
2022-08-10T17:04:09.396Z,3.10
2022-08-10T17:06:39.203Z,3.53
2022-08-10T17:09:08.193Z,3.50
2022-08-10T17:11:37.056Z,3.70
2022-08-10T17:14:07.291Z,3.67
2022-08-10T17:16:35.702Z,4.55
2022-08-10T17:19:03.202Z,4.30
2022-08-10T17:21:31.425Z,4.72
2022-08-10T17:24:00.448Z,4.65
2022-08-10T17:26:35.439Z,5.25
2022-08-10T17:29:07.812Z,5.78
2022-08-10T17:31:54.540Z,5.15
2022-08-10T17:34:24.756Z,4.85
2022-08-10T17:36:53.739Z,5.28
2022-08-10T17:39:22.230Z,4.80
2022-08-10T17:41:52.144Z,4.50
2022-08-10T17:44:19.734Z,5.07
2022-08-10T17:46:47.021Z,4.78
2022-08-10T17:49:16.187Z,6.05
2022-08-10T17:51:43.521Z,5.22
2022-08-10T17:54:33.199Z,4.90
2022-08-10T17:57:01.812Z,4.90
2022-08-10T17:59:30.040Z,5.15
2022-08-10T18:02:02.233Z,6.10
2022-08-10T18:04:35.606Z,4.47
2022-08-10T18:07:10.596Z,4.15
2022-08-10T18:09:40.513Z,4.90
2022-08-10T18:12:17.888Z,4.53
2022-08-10T18:14:46.779Z,4.55
2022-08-10T18:17:16.854Z,4.85
2022-08-10T18:19:47.509Z,5.60
2022-08-10T18:22:14.460Z,4.82
2022-08-10T18:24:41.557Z,5.80
2022-08-10T18:27:09.002Z,4.75
2022-08-10T18:29:38.466Z,4.80
2022-08-10T18:32:06.147Z,5.22
2022-08-10T18:34:33.550Z,5.57
2022-08-10T18:37:00.825Z,4.65
2022-08-10T18:39:28.732Z,4.82
2022-08-10T18:42:04.726Z,4.45
2022-08-10T18:44:35.497Z,4.75
2022-08-10T18:47:04.410Z,4.60
2022-08-10T18:49:39.425Z,5.35
2022-08-10T18:52:08.569Z,5.22
2022-08-10T18:54:44.752Z,5.20
2022-08-10T18:57:15.070Z,4.38
2022-08-10T19:00:03.931Z,4.80
2022-08-10T19:02:44.188Z,4.90
2022-08-10T19:05:31.469Z,4.22
2022-08-10T19:08:13.285Z,3.95
2022-08-10T19:11:02.040Z,5.72
2022-08-10T19:13:34.476Z,4.22
2022-08-10T19:16:06.018Z,4.50
2022-08-10T19:18:34.649Z,3.92
2022-08-10T19:21:01.241Z,5.07
2022-08-10T19:23:41.415Z,3.85
2022-08-10T19:26:44.838Z,4.00
2022-08-10T19:30:10.232Z,3.65
2022-08-10T19:31:59.784Z,4.10
2022-08-10T19:34:44.441Z,3.90
2022-08-10T19:37:32.570Z,4.00
2022-08-10T19:39:59.931Z,4.90
2022-08-10T19:42:37.311Z,4.10
2022-08-10T19:45:12.418Z,3.80
2022-08-10T19:48:17.857Z,4.18
2022-08-10T19:50:47.508Z,4.75
2022-08-10T19:53:29.282Z,3.85
2022-08-10T19:56:33.499Z,4.20
2022-08-10T19:59:16.354Z,3.78
2022-08-10T20:02:04.041Z,3.78
2022-08-10T20:04:36.162Z,3.55
2022-08-10T20:07:13.044Z,3.50
2022-08-10T20:10:00.159Z,4.13
2022-08-10T20:12:27.251Z,4.15
2022-08-10T20:15:11.588Z,4.22
2022-08-10T20:17:51.625Z,3.60
2022-08-10T20:20:29.175Z,4.30
2022-08-10T20:23:17.292Z,3.92
2022-08-10T20:25:46.682Z,3.92
2022-08-10T20:28:18.827Z,4.13
2022-08-10T20:30:48.084Z,3.97
2022-08-10T20:33:20.963Z,3.65
2022-08-10T20:35:53.754Z,4.28
2022-08-10T20:38:29.019Z,3.17
2022-08-10T20:40:58.692Z,3.67
2022-08-10T20:43:45.795Z,4.25
2022-08-10T20:46:38.776Z,3.10
2022-08-10T20:49:25.602Z,3.20
2022-08-10T20:51:58.635Z,2.80
2022-08-10T20:54:30.601Z,3.22
2022-08-10T20:57:55.412Z,2.65
2022-08-10T21:00:04.435Z,3.08
2022-08-10T21:02:34.818Z,3.15
2022-08-10T21:05:22.523Z,3.17
2022-08-10T21:08:01.985Z,3.03
2022-08-10T21:10:48.017Z,3.03
2022-08-10T21:13:24.613Z,3.20
2022-08-10T21:16:00.353Z,2.92
2022-08-10T21:18:44.157Z,2.88
2022-08-10T21:21:41.855Z,3.03
2022-08-10T21:24:11.992Z,2.92
2022-08-10T21:26:45.080Z,3.10
2022-08-10T21:29:19.570Z,2.75
2022-08-10T21:31:48.352Z,2.95
2022-08-10T21:34:35.229Z,2.80
2022-08-10T21:37:20.555Z,2.70
2022-08-10T21:39:52.283Z,3.00
2022-08-10T21:42:47.363Z,2.78
2022-08-10T21:45:59.276Z,2.78
2022-08-10T21:48:45.415Z,3.08
2022-08-10T21:52:02.029Z,2.53
2022-08-10T21:54:57.248Z,2.45
2022-08-10T21:57:45.607Z,2.97
2022-08-10T22:00:33.966Z,3.03
2022-08-10T22:03:21.172Z,2.97
2022-08-10T22:06:08.514Z,2.80
2022-08-10T22:08:56.744Z,2.83
2022-08-10T22:11:43.607Z,2.75
2022-08-10T22:14:33.949Z,2.65
2022-08-10T22:17:59.987Z,3.55
2022-08-10T22:20:32.672Z,3.05
2022-08-10T22:23:24.362Z,2.90
2022-08-10T22:26:19.998Z,3.10
2022-08-10T22:29:09.774Z,2.60
2022-08-10T22:32:09.306Z,2.63
2022-08-10T22:35:13.689Z,2.63
2022-08-10T22:38:11.072Z,3.22
2022-08-10T22:41:01.328Z,3.20
2022-08-10T22:43:47.985Z,2.72
2022-08-10T22:46:43.376Z,2.70
2022-08-10T22:49:10.376Z,2.72
2022-08-10T22:51:36.906Z,2.45
2022-08-10T22:54:37.353Z,2.50
2022-08-10T22:57:23.133Z,2.55
2022-08-10T22:59:50.395Z,2.50
2022-08-10T23:02:32.208Z,2.58
2022-08-10T23:05:19.083Z,2.95
2022-08-10T23:07:49.898Z,2.90
2022-08-10T23:10:18.524Z,2.63
2022-08-10T23:12:45.009Z,2.63
2022-08-10T23:15:56.616Z,2.85
2022-08-10T23:18:51.582Z,2.20
2022-08-10T23:21:18.819Z,3.13
2022-08-10T23:23:46.363Z,3.03
2022-08-10T23:26:15.434Z,3.00
2022-08-10T23:28:58.362Z,3.10
2022-08-10T23:31:58.394Z,2.60
2022-08-10T23:34:14.503Z,2.60
2022-08-10T23:36:42.225Z,2.83
2022-08-10T23:39:25.846Z,2.80
2022-08-10T23:41:57.180Z,2.80
2022-08-10T23:44:24.754Z,2.85
2022-08-10T23:46:51.779Z,3.15
2022-08-10T23:49:19.087Z,2.92
2022-08-10T23:51:55.767Z,2.97
2022-08-10T23:54:24.027Z,3.13
2022-08-10T23:56:56.597Z,2.70
2022-08-10T23:59:28.580Z,2.67
